createdAt,value
2022-10-19T00:00:31.859Z,71.50
2022-10-19T00:01:31.848Z,72.90
2022-10-19T00:02:31.883Z,111.30
2022-10-19T00:03:31.839Z,71.20
2022-10-19T00:04:31.799Z,45.80
2022-10-19T00:05:31.799Z,147.90
2022-10-19T00:06:31.779Z,83.90
2022-10-19T00:07:32.129Z,130.00
2022-10-19T00:08:31.771Z,113.10
2022-10-19T00:09:31.729Z,65.50
2022-10-19T00:10:31.734Z,100.60
2022-10-19T00:11:31.711Z,93.20
2022-10-19T00:12:31.691Z,196.10
2022-10-19T00:13:31.736Z,127.80
2022-10-19T00:14:31.677Z,75.20
2022-10-19T00:15:31.693Z,152.60
2022-10-19T00:16:31.652Z,73.20
2022-10-19T00:17:32.037Z,82.20
2022-10-19T00:18:31.633Z,109.00
2022-10-19T00:19:31.611Z,83.60
2022-10-19T00:20:31.616Z,103.50
2022-10-19T00:21:31.604Z,98.50
2022-10-19T00:22:31.936Z,201.70
2022-10-19T00:23:31.576Z,98.50
2022-10-19T00:24:31.552Z,121.00
2022-10-19T00:25:31.552Z,189.50
2022-10-19T00:26:31.519Z,60.60
2022-10-19T00:27:31.507Z,118.40
2022-10-19T00:28:31.590Z,173.80
2022-10-19T00:29:31.483Z,87.90
2022-10-19T00:30:31.493Z,86.20
2022-10-19T00:31:31.458Z,120.70
2022-10-19T00:32:31.599Z,23.40
2022-10-19T00:33:31.444Z,74.30
2022-10-19T00:34:31.406Z,42.60
2022-10-19T00:35:31.399Z,27.50
2022-10-19T00:36:31.408Z,40.20
2022-10-19T00:37:31.372Z,47.00
2022-10-19T00:38:31.412Z,58.00
2022-10-19T00:39:31.345Z,48.40
2022-10-19T00:40:31.332Z,28.20
2022-10-19T00:41:31.337Z,33.20
2022-10-19T00:42:31.520Z,35.90
2022-10-19T00:43:31.308Z,19.20
2022-10-19T00:44:31.325Z,32.80
2022-10-19T00:45:31.297Z,22.00
2022-10-19T00:46:31.248Z,21.20
2022-10-19T00:47:31.272Z,38.90
2022-10-19T00:48:31.226Z,23.60
2022-10-19T00:49:31.206Z,26.30
2022-10-19T00:50:31.197Z,46.50
2022-10-19T00:51:31.203Z,51.80
2022-10-19T00:52:31.469Z,32.00
2022-10-19T00:53:31.178Z,45.40
2022-10-19T00:54:31.139Z,72.10
2022-10-19T00:55:31.133Z,21.30
2022-10-19T00:56:31.140Z,60.50
2022-10-19T00:57:31.118Z,83.60
2022-10-19T00:58:31.101Z,64.90
2022-10-19T00:59:31.077Z,94.80
2022-10-19T01:00:31.058Z,184.20
2022-10-19T01:01:31.103Z,155.90
2022-10-19T01:02:31.495Z,176.40
2022-10-19T01:03:31.039Z,118.90
2022-10-19T01:04:31.011Z,110.10
2022-10-19T01:05:31.001Z,75.70
2022-10-19T01:06:30.990Z,94.00
2022-10-19T01:07:32.201Z,182.70
2022-10-19T01:08:30.970Z,120.70
2022-10-19T01:09:30.956Z,128.60
2022-10-19T01:10:30.929Z,128.20
2022-10-19T01:11:30.923Z,121.00
2022-10-19T01:12:30.901Z,157.80
2022-10-19T01:13:30.911Z,155.20
2022-10-19T01:14:30.881Z,154.30
2022-10-19T01:15:30.882Z,55.50
2022-10-19T01:16:30.860Z,147.20
2022-10-19T01:17:30.991Z,121.80
2022-10-19T01:18:30.852Z,136.10
2022-10-19T01:19:30.825Z,87.00
2022-10-19T01:20:30.812Z,102.00
2022-10-19T01:21:30.790Z,178.00
2022-10-19T01:22:30.783Z,153.10
2022-10-19T01:23:30.773Z,207.60
2022-10-19T01:24:30.767Z,180.00
2022-10-19T01:25:30.737Z,218.40
2022-10-19T01:26:30.722Z,186.60
2022-10-19T01:27:30.845Z,188.00
2022-10-19T01:28:30.745Z,114.60
2022-10-19T01:29:30.696Z,285.20
2022-10-19T01:30:30.675Z,199.50
2022-10-19T01:31:30.654Z,199.90
2022-10-19T01:32:30.653Z,92.00
2022-10-19T01:33:30.635Z,227.60
2022-10-19T01:34:30.625Z,117.90
2022-10-19T01:35:30.613Z,117.10
2022-10-19T01:36:30.628Z,193.40
2022-10-19T01:37:30.757Z,179.20
2022-10-19T01:38:30.576Z,189.10
2022-10-19T01:39:30.566Z,365.90
2022-10-19T01:40:30.547Z,259.80
2022-10-19T01:41:30.535Z,164.70
2022-10-19T01:42:30.531Z,137.40
2022-10-19T01:43:30.513Z,142.60
2022-10-19T01:44:30.497Z,176.50
2022-10-19T01:45:30.477Z,141.00
2022-10-19T01:46:30.477Z,281.80
2022-10-19T01:47:30.555Z,397.70
2022-10-19T01:48:30.440Z,298.50
2022-10-19T01:49:30.429Z,341.70
2022-10-19T01:50:30.450Z,306.60
2022-10-19T01:51:30.414Z,278.00
2022-10-19T01:52:30.493Z,322.90
2022-10-19T01:53:30.403Z,283.40
2022-10-19T01:54:30.369Z,321.30
2022-10-19T01:55:30.350Z,199.60
2022-10-19T01:56:30.343Z,333.10
2022-10-19T01:57:37.825Z,257.00
2022-10-19T01:58:30.306Z,306.50
2022-10-19T01:59:30.295Z,197.30
2022-10-19T02:00:30.286Z,274.90
2022-10-19T02:01:30.265Z,164.60
2022-10-19T02:02:30.471Z,209.80
2022-10-19T02:03:30.251Z,153.90
2022-10-19T02:04:31.235Z,106.50
2022-10-19T02:05:30.225Z,145.70
2022-10-19T02:06:30.209Z,135.00
2022-10-19T02:07:30.200Z,192.80
2022-10-19T02:08:30.188Z,205.60
2022-10-19T02:09:30.177Z,213.10
2022-10-19T02:10:30.260Z,133.30
2022-10-19T02:11:30.158Z,108.00
2022-10-19T02:12:30.302Z,192.10
2022-10-19T02:13:30.181Z,76.70
2022-10-19T02:14:32.157Z,110.50
2022-10-19T02:15:30.081Z,269.10
2022-10-19T02:16:30.104Z,143.40
2022-10-19T02:17:30.097Z,122.00
2022-10-19T02:18:30.101Z,175.50
2022-10-19T02:19:30.116Z,243.50
2022-10-19T02:20:30.029Z,373.60
2022-10-19T02:21:30.021Z,184.90
2022-10-19T02:22:30.000Z,184.50
2022-10-19T02:23:29.979Z,186.00
2022-10-19T02:24:30.040Z,349.50
2022-10-19T02:25:30.082Z,182.60
2022-10-19T02:26:30.051Z,192.30
2022-10-19T02:27:29.961Z,287.80
2022-10-19T02:28:29.975Z,185.10
2022-10-19T02:29:29.971Z,150.80
2022-10-19T02:30:30.014Z,88.80
2022-10-19T02:31:29.981Z,115.00
2022-10-19T02:32:29.891Z,108.70
2022-10-19T02:33:29.853Z,140.10
2022-10-19T02:34:29.942Z,232.10
2022-10-19T02:35:29.834Z,53.50
2022-10-19T02:36:29.822Z,74.30
2022-10-19T02:37:29.851Z,75.60
2022-10-19T02:38:29.814Z,77.70
2022-10-19T02:39:29.783Z,40.90
2022-10-19T02:40:29.882Z,50.90
2022-10-19T02:41:29.752Z,86.80
2022-10-19T02:42:30.941Z,95.50
2022-10-19T02:43:29.732Z,110.40
2022-10-19T02:44:29.724Z,163.90
2022-10-19T02:45:29.714Z,177.60
2022-10-19T02:46:29.730Z,160.10
2022-10-19T02:47:29.688Z,145.30
2022-10-19T02:48:29.678Z,169.30
2022-10-19T02:49:29.660Z,179.00
2022-10-19T02:50:29.666Z,146.40
2022-10-19T02:51:29.632Z,199.30
2022-10-19T02:52:29.615Z,114.80
2022-10-19T02:53:29.602Z,251.10
2022-10-19T02:54:29.594Z,202.10
2022-10-19T02:55:29.734Z,241.50
2022-10-19T02:56:29.652Z,213.60
2022-10-19T02:57:29.665Z,287.30
2022-10-19T02:58:29.564Z,153.00
2022-10-19T02:59:29.574Z,273.20
2022-10-19T03:00:29.611Z,198.90
2022-10-19T03:01:31.562Z,161.50
2022-10-19T03:02:29.486Z,127.50
2022-10-19T03:03:29.501Z,143.70
2022-10-19T03:04:29.505Z,85.00
2022-10-19T03:05:29.540Z,128.70
2022-10-19T03:06:29.528Z,123.50
2022-10-19T03:07:29.417Z,189.60
2022-10-19T03:08:29.427Z,155.30
2022-10-19T03:09:29.462Z,121.40
2022-10-19T03:10:29.477Z,206.00
2022-10-19T03:11:29.450Z,286.30
2022-10-19T03:12:29.364Z,167.00
2022-10-19T03:13:29.358Z,80.30
2022-10-19T03:14:29.368Z,90.70
2022-10-19T03:15:29.411Z,145.90
2022-10-19T03:16:29.385Z,99.60
2022-10-19T03:17:30.323Z,83.90
2022-10-19T03:18:29.304Z,125.30
2022-10-19T03:19:29.298Z,90.50
2022-10-19T03:20:29.340Z,74.80
2022-10-19T03:21:29.320Z,82.20
2022-10-19T03:22:29.330Z,66.10
2022-10-19T03:23:29.236Z,49.80
2022-10-19T03:24:29.233Z,63.20
2022-10-19T03:25:29.289Z,51.00
2022-10-19T03:26:29.242Z,87.80
2022-10-19T03:27:29.293Z,85.50
2022-10-19T03:28:30.200Z,84.40
2022-10-19T03:29:29.155Z,70.00
2022-10-19T03:30:29.130Z,64.50
2022-10-19T03:31:29.122Z,69.20
2022-10-19T03:32:29.183Z,97.70
2022-10-19T03:33:29.233Z,67.60
2022-10-19T03:34:29.109Z,39.30
2022-10-19T03:35:29.143Z,44.70
2022-10-19T03:36:29.115Z,39.40
2022-10-19T03:37:29.119Z,48.30
2022-10-19T03:38:29.178Z,67.50
2022-10-19T03:39:29.012Z,76.10
2022-10-19T03:40:29.073Z,85.50
2022-10-19T03:41:29.033Z,66.50
2022-10-19T03:42:29.100Z,53.10
2022-10-19T03:43:29.054Z,45.70
2022-10-19T03:44:28.944Z,34.80
2022-10-19T03:45:28.962Z,38.20
2022-10-19T03:46:28.913Z,25.30
2022-10-19T03:47:28.903Z,22.50
2022-10-19T03:48:28.893Z,14.40
2022-10-19T03:49:28.877Z,17.70
2022-10-19T04:02:32.671Z,6.60
2022-10-19T04:03:32.718Z,7.80
2022-10-19T04:04:32.630Z,7.50
2022-10-19T04:05:32.628Z,10.30
2022-10-19T04:06:32.607Z,8.30
2022-10-19T04:07:32.814Z,8.80
2022-10-19T04:08:32.579Z,5.20
2022-10-19T04:09:32.579Z,3.40
2022-10-19T04:10:32.559Z,4.70
2022-10-19T04:11:33.567Z,8.20
2022-10-19T04:12:32.535Z,7.00
2022-10-19T04:13:32.519Z,7.10
2022-10-19T04:14:39.191Z,5.20
2022-10-19T04:15:33.511Z,13.20
2022-10-19T04:16:33.489Z,19.50
2022-10-19T04:17:32.899Z,12.90
2022-10-19T04:18:32.450Z,11.00
2022-10-19T04:19:32.443Z,8.70
2022-10-19T04:20:32.449Z,15.80
2022-10-19T04:21:32.422Z,23.20
2022-10-19T04:22:32.400Z,19.00
2022-10-19T04:23:32.389Z,13.20
2022-10-19T04:24:32.373Z,5.50
2022-10-19T04:25:32.381Z,22.30
2022-10-19T04:26:32.357Z,13.50
2022-10-19T04:27:32.572Z,15.00
2022-10-19T04:28:32.399Z,9.90
2022-10-19T04:29:32.313Z,12.20
2022-10-19T04:30:32.311Z,23.80
2022-10-19T04:31:33.280Z,19.30
2022-10-19T04:32:32.270Z,88.10
2022-10-19T04:33:32.359Z,81.70
2022-10-19T04:34:35.169Z,71.70
2022-10-19T04:35:33.252Z,24.50
2022-10-19T04:36:33.215Z,73.00
2022-10-19T04:37:32.561Z,100.30
2022-10-19T04:38:32.206Z,52.80
2022-10-19T04:39:32.178Z,91.50
2022-10-19T04:40:32.176Z,213.30
2022-10-19T04:41:32.152Z,206.50
2022-10-19T04:42:32.136Z,147.00
2022-10-19T04:43:32.135Z,146.10
2022-10-19T04:44:32.107Z,31.20
2022-10-19T04:45:33.114Z,10.50
2022-10-19T04:46:32.084Z,32.50
2022-10-19T04:47:32.498Z,35.60
2022-10-19T04:48:32.064Z,6.70
2022-10-19T04:49:32.044Z,33.20
2022-10-19T04:50:32.057Z,15.80
2022-10-19T04:51:32.018Z,18.10
2022-10-19T04:52:32.005Z,20.20
2022-10-19T04:53:32.003Z,13.90
2022-10-19T04:54:31.976Z,28.00
2022-10-19T04:55:31.984Z,53.50
2022-10-19T04:56:32.945Z,16.60
2022-10-19T04:57:32.237Z,26.10
2022-10-19T04:58:31.936Z,19.60
2022-10-19T04:59:31.916Z,44.70
2022-10-19T05:00:31.908Z,35.20
2022-10-19T05:01:31.895Z,55.20
2022-10-19T05:02:31.877Z,118.80
2022-10-19T05:03:31.883Z,38.50
2022-10-19T05:04:31.858Z,26.70
2022-10-19T05:05:31.848Z,41.80
2022-10-19T05:06:31.822Z,41.90
2022-10-19T05:07:32.111Z,67.10
2022-10-19T05:08:31.801Z,207.90
2022-10-19T05:09:31.778Z,145.80
2022-10-19T05:10:31.780Z,167.50
2022-10-19T05:11:31.759Z,153.50
2022-10-19T05:12:31.756Z,273.30
2022-10-19T05:13:31.739Z,255.20
2022-10-19T05:14:31.720Z,173.00
2022-10-19T05:15:31.721Z,210.20
2022-10-19T05:16:31.702Z,125.30
2022-10-19T05:17:32.014Z,104.60
2022-10-19T05:18:31.675Z,145.40
2022-10-19T05:19:31.650Z,227.10
2022-10-19T05:20:31.704Z,321.60
2022-10-19T05:21:31.633Z,162.60
2022-10-19T05:22:31.611Z,160.90
2022-10-19T05:24:31.582Z,205.00
2022-10-19T05:25:31.613Z,98.70
2022-10-19T05:26:31.561Z,242.60
2022-10-19T05:27:31.810Z,176.20
2022-10-19T05:28:31.579Z,259.90
2022-10-19T05:29:31.523Z,172.30
2022-10-19T05:30:32.516Z,80.50
2022-10-19T05:31:31.492Z,147.60
2022-10-19T05:32:31.482Z,182.50
2022-10-19T05:33:31.472Z,131.00
2022-10-19T05:34:31.453Z,188.00
2022-10-19T05:35:31.460Z,240.60
2022-10-19T05:36:31.423Z,160.80
2022-10-19T05:37:31.566Z,221.90
2022-10-19T05:38:31.403Z,212.80
2022-10-19T05:39:31.384Z,175.80
2022-10-19T05:40:31.831Z,259.10
2022-10-19T05:41:31.363Z,154.60
2022-10-19T05:42:31.503Z,176.00
2022-10-19T05:43:31.344Z,365.30
2022-10-19T05:44:31.362Z,261.70
2022-10-19T05:45:31.337Z,241.90
2022-10-19T05:46:31.294Z,134.30
2022-10-19T05:47:31.350Z,191.80
2022-10-19T05:48:31.275Z,143.20
2022-10-19T05:49:31.255Z,119.60
2022-10-19T05:50:31.256Z,130.40
2022-10-19T05:51:31.242Z,95.10
2022-10-19T05:52:31.215Z,135.00
2022-10-19T05:53:31.234Z,113.40
2022-10-19T05:54:31.295Z,160.10
2022-10-19T05:55:31.194Z,80.20
2022-10-19T05:56:31.178Z,160.50
2022-10-19T05:57:31.369Z,112.20
2022-10-19T05:58:31.137Z,137.30
2022-10-19T05:59:31.130Z,146.20
2022-10-19T06:00:31.127Z,144.30
2022-10-19T06:01:31.156Z,104.30
2022-10-19T06:02:31.098Z,103.50
2022-10-19T06:03:31.086Z,200.00
2022-10-19T06:04:31.059Z,127.60
2022-10-19T06:05:31.065Z,151.50
2022-10-19T06:06:31.047Z,42.80
2022-10-19T06:07:31.173Z,204.20
2022-10-19T06:08:31.029Z,148.40
2022-10-19T06:09:31.020Z,150.60
2022-10-19T06:10:31.019Z,120.60
2022-10-19T06:11:30.979Z,125.50
2022-10-19T06:12:30.978Z,118.50
2022-10-19T06:13:30.989Z,160.70
2022-10-19T06:14:30.932Z,166.00
2022-10-19T06:15:30.953Z,148.20
2022-10-19T06:16:30.939Z,92.20
2022-10-19T06:17:32.116Z,96.90
2022-10-19T06:18:30.900Z,95.80
2022-10-19T06:19:30.872Z,89.30
2022-10-19T06:20:30.870Z,169.20
2022-10-19T06:21:30.877Z,176.70
2022-10-19T06:22:30.850Z,167.50
2022-10-19T06:23:30.902Z,84.90
2022-10-19T06:24:30.811Z,161.00
2022-10-19T06:25:30.816Z,154.40
2022-10-19T06:26:30.791Z,169.00
2022-10-19T06:27:30.856Z,127.90
2022-10-19T06:28:30.761Z,112.50
2022-10-19T06:29:30.754Z,201.70
2022-10-19T06:30:30.788Z,203.70
2022-10-19T06:31:30.733Z,162.10
2022-10-19T06:32:30.703Z,222.20
2022-10-19T06:33:30.692Z,261.80
2022-10-19T06:34:30.717Z,289.50
2022-10-19T06:35:30.683Z,145.50
2022-10-19T06:36:30.664Z,237.80
2022-10-19T06:37:30.643Z,257.50
2022-10-19T06:38:30.625Z,171.30
2022-10-19T06:39:30.632Z,155.80
2022-10-19T06:40:30.636Z,103.80
2022-10-19T06:41:30.607Z,97.00
2022-10-19T06:42:30.584Z,308.30
2022-10-19T06:43:30.568Z,76.90
2022-10-19T06:44:30.544Z,129.10
2022-10-19T06:45:35.529Z,115.70
2022-10-19T06:46:31.536Z,127.20
2022-10-19T06:47:30.555Z,103.30
2022-10-19T06:48:30.495Z,73.50
2022-10-19T06:49:30.485Z,103.20
2022-10-19T06:50:30.475Z,91.40
2022-10-19T06:51:30.486Z,115.60
2022-10-19T06:52:30.537Z,70.70
2022-10-19T06:53:30.456Z,84.90
2022-10-19T06:54:30.417Z,69.00
2022-10-19T06:55:30.426Z,142.10
2022-10-19T06:56:30.421Z,111.80
2022-10-19T06:57:30.386Z,149.70
2022-10-19T06:58:30.391Z,143.70
2022-10-19T06:59:30.356Z,94.80
2022-10-19T07:00:30.417Z,137.10
2022-10-19T07:01:30.355Z,96.70
2022-10-19T07:02:30.317Z,68.40
2022-10-19T07:03:30.318Z,82.30
2022-10-19T07:04:30.288Z,79.40
2022-10-19T07:05:30.289Z,82.70
2022-10-19T07:06:30.267Z,119.40
2022-10-19T07:07:30.294Z,98.50
2022-10-19T07:08:30.248Z,70.00
2022-10-19T07:09:30.219Z,100.00
2022-10-19T07:10:30.218Z,34.20
2022-10-19T07:11:30.231Z,106.60
2022-10-19T07:12:30.189Z,66.30
2022-10-19T07:13:31.196Z,68.40
2022-10-19T07:14:30.159Z,123.10
2022-10-19T07:15:30.163Z,233.80
2022-10-19T07:16:30.141Z,146.00
2022-10-19T07:17:30.120Z,185.40
2022-10-19T07:18:30.129Z,116.50
2022-10-19T07:19:30.089Z,77.80
2022-10-19T07:20:30.093Z,71.50
2022-10-19T07:21:30.085Z,84.40
2022-10-19T07:22:30.061Z,152.20
2022-10-19T07:23:30.049Z,168.60
2022-10-19T07:24:30.045Z,129.90
2022-10-19T07:25:30.021Z,83.40
2022-10-19T07:26:30.012Z,136.10
2022-10-19T07:27:32.886Z,69.30
2022-10-19T07:28:30.994Z,70.10
2022-10-19T07:29:29.971Z,58.50
2022-10-19T07:30:29.960Z,116.90
2022-10-19T07:31:29.975Z,94.50
2022-10-19T07:32:29.923Z,128.60
2022-10-19T07:33:30.922Z,162.40
2022-10-19T07:34:29.904Z,114.70
2022-10-19T07:35:29.899Z,133.90
2022-10-19T07:36:29.885Z,70.30
2022-10-19T07:37:29.863Z,116.60
2022-10-19T07:38:29.860Z,83.60
2022-10-19T07:39:29.835Z,81.20
2022-10-19T07:40:29.824Z,132.00
2022-10-19T07:41:29.816Z,171.70
2022-10-19T07:42:29.816Z,121.20
2022-10-19T07:43:29.783Z,40.20
2022-10-19T07:44:29.773Z,98.40
2022-10-19T07:45:29.789Z,106.10
2022-10-19T07:46:29.764Z,78.50
2022-10-19T07:47:29.735Z,42.20
2022-10-19T07:48:29.725Z,56.70
2022-10-19T07:49:29.705Z,68.30
2022-10-19T07:50:29.699Z,86.20
2022-10-19T07:52:31.838Z,42.30
2022-10-19T07:53:29.656Z,76.30
2022-10-19T07:54:29.637Z,40.80
2022-10-19T07:55:29.627Z,34.40
2022-10-19T07:56:29.637Z,24.80
2022-10-19T07:57:29.608Z,28.90
2022-10-19T07:58:29.587Z,13.90
2022-10-19T07:59:29.578Z,26.30
2022-10-19T08:00:29.624Z,34.70
2022-10-19T08:01:29.568Z,82.50
2022-10-19T08:02:39.439Z,88.10
2022-10-19T08:04:14.223Z,74.00
2022-10-19T08:04:56.027Z,43.90
2022-10-19T08:05:30.488Z,44.30
2022-10-19T08:06:29.512Z,56.70
2022-10-19T08:07:29.466Z,53.10
2022-10-19T08:08:29.500Z,15.70
2022-10-19T08:10:30.435Z,91.60
2022-10-19T08:11:29.420Z,86.30
2022-10-19T08:12:29.400Z,98.00
2022-10-19T08:13:29.399Z,113.90
2022-10-19T08:14:29.406Z,63.90
2022-10-19T08:15:29.379Z,43.00
2022-10-19T08:16:29.371Z,98.40
2022-10-19T08:17:29.332Z,83.90
2022-10-19T08:18:29.368Z,94.10
2022-10-19T08:19:29.310Z,124.20
2022-10-19T08:20:29.348Z,44.30
2022-10-19T08:21:29.283Z,47.90
2022-10-19T08:22:29.270Z,112.10
2022-10-19T08:23:29.247Z,67.20
2022-10-19T08:24:29.241Z,60.10
2022-10-19T08:25:30.212Z,12.40
2022-10-19T08:26:29.222Z,11.70
2022-10-19T08:27:29.281Z,13.00
2022-10-19T08:28:29.182Z,84.10
2022-10-19T08:29:31.476Z,24.90
2022-10-19T08:30:29.159Z,72.70
2022-10-19T08:31:31.141Z,106.80
2022-10-19T08:32:29.122Z,66.30
2022-10-19T08:33:29.126Z,35.90
2022-10-19T08:34:29.276Z,28.00
2022-10-19T08:35:29.093Z,56.80
2022-10-19T08:36:29.126Z,28.00
2022-10-19T08:37:40.757Z,28.20
2022-10-19T08:38:30.061Z,13.30
2022-10-19T08:39:29.043Z,12.50
2022-10-19T08:40:29.033Z,9.60
2022-10-19T08:41:29.013Z,39.30
2022-10-19T08:42:28.997Z,20.10
2022-10-19T08:43:28.975Z,11.40
2022-10-19T08:44:28.964Z,16.40
2022-10-19T08:45:29.002Z,30.60
2022-10-19T08:46:28.960Z,15.60
2022-10-19T08:47:28.924Z,18.80
2022-10-19T08:48:28.935Z,24.60
2022-10-19T08:49:28.895Z,5.50
2022-10-19T08:50:28.896Z,15.30
2022-10-19T08:51:28.882Z,10.90
2022-10-19T08:52:33.418Z,17.30
2022-10-19T08:53:29.856Z,7.60
2022-10-19T08:54:28.840Z,5.80
2022-10-19T08:55:28.836Z,16.50
2022-10-19T08:57:29.807Z,21.00
2022-10-19T08:58:28.788Z,14.20
2022-10-19T08:59:28.777Z,6.70
2022-10-19T09:00:28.816Z,12.70
2022-10-19T09:01:29.437Z,10.90
2022-10-19T09:02:28.749Z,7.30
2022-10-19T09:03:37.587Z,4.80
2022-10-19T09:04:29.716Z,6.70
2022-10-19T09:05:28.697Z,6.90
2022-10-19T09:06:28.679Z,6.00
2022-10-19T09:07:29.668Z,6.40
2022-10-19T09:08:28.714Z,6.70
2022-10-19T09:09:28.639Z,4.50
2022-10-19T09:10:28.630Z,9.20
2022-10-19T09:11:28.610Z,5.70
2022-10-19T09:12:28.609Z,5.30
2022-10-19T09:13:36.426Z,8.80
2022-10-19T09:14:29.580Z,8.40
2022-10-19T09:15:28.563Z,4.00
2022-10-19T09:16:28.551Z,7.70
2022-10-19T09:17:28.540Z,7.80
2022-10-19T09:18:28.533Z,10.20
2022-10-19T09:19:28.510Z,10.00
2022-10-19T09:20:28.501Z,4.40
2022-10-19T09:21:34.391Z,7.90
2022-10-19T09:22:29.480Z,6.30
2022-10-19T09:23:28.465Z,6.50
2022-10-19T09:24:28.442Z,7.90
2022-10-19T09:25:28.484Z,9.10
2022-10-19T09:26:28.429Z,7.10
2022-10-19T09:27:29.406Z,5.80
2022-10-19T09:28:33.898Z,6.10
2022-10-19T09:29:29.383Z,7.70
2022-10-19T09:30:28.363Z,7.10
2022-10-19T09:31:31.447Z,8.40
2022-10-19T09:32:28.366Z,7.10
2022-10-19T09:33:29.330Z,7.90
2022-10-19T09:34:28.315Z,7.50
2022-10-19T09:35:28.306Z,10.90
2022-10-19T09:38:28.269Z,8.20
2022-10-19T09:39:29.561Z,9.80
2022-10-19T09:40:28.236Z,7.10
2022-10-19T09:41:28.220Z,8.60
2022-10-19T09:42:28.219Z,6.20
2022-10-19T09:43:28.187Z,7.00
2022-10-19T09:44:28.175Z,8.60
2022-10-19T09:45:28.166Z,7.20
2022-10-19T09:46:28.163Z,8.30
2022-10-19T10:03:09.811Z,7.70
2022-10-19T10:04:09.798Z,8.40
2022-10-19T10:05:09.794Z,9.10
2022-10-19T10:06:09.755Z,10.90
2022-10-19T10:07:09.746Z,8.50
2022-10-19T10:08:09.734Z,7.50
2022-10-19T10:09:09.785Z,11.10
2022-10-19T10:10:09.736Z,8.80
2022-10-19T10:11:09.698Z,7.20
2022-10-19T10:12:09.685Z,7.50
2022-10-19T10:13:09.688Z,7.90
2022-10-19T10:14:10.074Z,7.00
2022-10-19T10:15:09.656Z,10.20
2022-10-19T10:16:09.623Z,9.20
2022-10-19T10:17:09.630Z,6.80
2022-10-19T10:18:09.619Z,7.40
2022-10-19T10:19:09.596Z,8.20
2022-10-19T10:20:09.576Z,8.00
2022-10-19T10:21:09.573Z,8.20
2022-10-19T10:22:10.547Z,7.10
2022-10-19T10:23:09.547Z,6.60
2022-10-19T10:24:09.538Z,7.80
2022-10-19T10:25:09.529Z,7.10
2022-10-19T10:26:09.498Z,7.70
2022-10-19T10:27:09.490Z,8.50
2022-10-19T10:28:09.479Z,9.30
2022-10-19T10:29:09.516Z,8.00
2022-10-19T10:30:09.451Z,7.10
2022-10-19T10:31:09.436Z,8.50
2022-10-19T10:32:10.421Z,6.30
2022-10-19T10:33:16.069Z,8.20
2022-10-19T10:34:22.605Z,7.90
2022-10-19T10:35:10.402Z,6.30
2022-10-19T10:36:09.368Z,6.90
2022-10-19T10:37:09.362Z,6.60
2022-10-19T10:38:09.400Z,7.40
2022-10-19T10:39:09.339Z,7.40
2022-10-19T10:40:09.340Z,8.20
2022-10-19T10:41:09.327Z,7.70
2022-10-19T10:42:09.292Z,7.30
2022-10-19T10:43:10.308Z,8.60
2022-10-19T10:44:09.278Z,7.20
2022-10-19T10:45:09.262Z,9.40
2022-10-19T10:46:09.243Z,8.00
2022-10-19T10:47:09.234Z,7.20
2022-10-19T10:48:09.220Z,8.20
2022-10-19T10:49:09.225Z,6.20
2022-10-19T10:50:09.194Z,8.20
2022-10-19T10:51:09.193Z,6.80
2022-10-19T10:52:09.164Z,7.90
2022-10-19T10:53:09.154Z,6.60
2022-10-19T10:54:09.165Z,6.00
2022-10-19T10:55:09.134Z,7.80
2022-10-19T10:56:09.104Z,7.60
2022-10-19T10:57:09.218Z,7.20
2022-10-19T10:58:09.110Z,7.20
2022-10-19T10:59:09.097Z,8.30
2022-10-19T11:00:09.103Z,8.50
2022-10-19T11:01:09.057Z,7.40
2022-10-19T11:02:09.100Z,6.80
2022-10-19T11:03:09.035Z,7.40
2022-10-19T11:04:09.031Z,7.60
2022-10-19T11:05:09.004Z,7.80
2022-10-19T11:06:09.068Z,6.80
2022-10-19T11:07:08.985Z,7.10
2022-10-19T11:08:08.958Z,7.30
2022-10-19T11:09:09.026Z,7.30
2022-10-19T11:10:08.934Z,6.90
2022-10-19T11:11:08.928Z,8.50
2022-10-19T11:12:08.907Z,8.90
2022-10-19T11:13:08.896Z,6.70
2022-10-19T11:14:08.890Z,8.20
2022-10-19T11:15:08.899Z,7.30
2022-10-19T11:16:08.869Z,9.30
2022-10-19T11:17:08.849Z,9.30
2022-10-19T11:18:08.829Z,8.00
2022-10-19T11:19:08.849Z,6.40
2022-10-19T11:20:09.819Z,9.20
2022-10-19T11:21:08.810Z,9.00
2022-10-19T11:22:08.791Z,7.00
2022-10-19T11:23:08.767Z,8.20
2022-10-19T11:24:09.771Z,8.00
2022-10-19T11:25:08.741Z,7.50
2022-10-19T11:26:08.735Z,6.00
2022-10-19T11:27:08.724Z,7.30
2022-10-19T11:28:08.691Z,6.80
2022-10-19T11:29:08.702Z,7.00
2022-10-19T11:30:08.744Z,7.30
2022-10-19T11:31:08.663Z,7.80
2022-10-19T11:32:08.693Z,6.20
2022-10-19T11:33:08.644Z,5.20
2022-10-19T11:34:08.644Z,5.30
2022-10-19T11:35:08.637Z,6.70
2022-10-19T11:36:08.594Z,5.40
2022-10-19T11:37:08.594Z,5.10
2022-10-19T11:38:19.776Z,7.10
2022-10-19T11:39:09.599Z,6.50
2022-10-19T11:40:08.549Z,7.10
2022-10-19T11:41:23.877Z,6.40
2022-10-19T11:42:09.518Z,7.10
2022-10-19T11:43:08.508Z,6.90
2022-10-19T11:44:08.515Z,5.80
2022-10-19T11:45:08.486Z,7.40
2022-10-19T11:46:08.467Z,5.40
2022-10-19T11:47:08.473Z,4.70
2022-10-19T11:48:08.439Z,5.00
2022-10-19T11:49:08.445Z,5.80
2022-10-19T11:51:21.119Z,6.40
2022-10-19T11:52:09.388Z,6.20
2022-10-19T11:53:08.378Z,5.70
2022-10-19T11:54:13.733Z,5.60
2022-10-19T11:55:09.359Z,6.10
2022-10-19T11:56:08.349Z,6.10
2022-10-19T11:57:11.474Z,6.20
2022-10-19T11:58:08.330Z,6.50
2022-10-19T11:59:08.384Z,5.40
2022-10-19T12:00:14.440Z,4.90
2022-10-19T12:01:09.281Z,5.50
2022-10-19T12:02:08.339Z,6.30
2022-10-19T12:03:08.254Z,6.20
2022-10-19T12:04:08.255Z,5.30
2022-10-19T12:05:08.252Z,5.30
2022-10-19T12:06:08.237Z,4.30
2022-10-19T12:07:08.204Z,4.50
2022-10-19T12:08:08.240Z,4.90
2022-10-19T12:09:08.254Z,5.30
2022-10-19T12:10:08.178Z,6.30
2022-10-19T12:11:08.164Z,6.00
2022-10-19T12:12:08.156Z,5.20
2022-10-19T12:13:08.136Z,6.50
2022-10-19T12:14:08.125Z,5.90
2022-10-19T12:15:08.109Z,7.20
2022-10-19T12:16:08.096Z,5.70
2022-10-19T12:17:08.133Z,4.30
2022-10-19T12:18:08.078Z,5.30
2022-10-19T12:19:08.093Z,5.20
2022-10-19T12:20:08.043Z,5.90
2022-10-19T12:21:08.037Z,6.00
2022-10-19T12:22:08.021Z,5.60
2022-10-19T12:23:08.009Z,7.30
2022-10-19T12:24:08.028Z,5.60
2022-10-19T12:25:07.979Z,6.80
2022-10-19T12:26:07.987Z,7.00
2022-10-19T12:27:07.952Z,6.40
2022-10-19T12:28:07.940Z,8.80
2022-10-19T12:29:07.950Z,6.70
2022-10-19T12:30:07.925Z,5.90
2022-10-19T12:31:07.902Z,7.80
2022-10-19T12:32:07.892Z,7.00
2022-10-19T12:33:07.872Z,6.30
2022-10-19T12:34:07.871Z,6.60
2022-10-19T12:35:07.920Z,6.10
2022-10-19T12:36:07.847Z,6.50
2022-10-19T12:37:07.832Z,5.40
2022-10-19T12:38:07.837Z,6.60
2022-10-19T12:39:07.816Z,6.30
2022-10-19T12:40:07.800Z,4.60
2022-10-19T12:41:07.761Z,5.20
2022-10-19T12:42:07.764Z,5.60
2022-10-19T12:43:07.785Z,8.30
2022-10-19T12:44:07.728Z,5.50
2022-10-19T12:45:07.722Z,7.50
2022-10-19T12:46:07.708Z,6.60
2022-10-19T12:47:07.726Z,5.70
2022-10-19T12:48:07.678Z,4.90
2022-10-19T12:49:07.656Z,7.00
2022-10-19T12:50:07.759Z,5.60
2022-10-19T12:51:07.672Z,6.50
2022-10-19T12:52:07.646Z,4.90
2022-10-19T12:53:07.617Z,6.20
2022-10-19T12:54:07.597Z,5.10
2022-10-19T12:55:07.601Z,6.00
2022-10-19T12:56:07.581Z,7.00
2022-10-19T12:57:07.567Z,5.30
2022-10-19T12:58:07.558Z,6.70
2022-10-19T12:59:07.556Z,7.40
2022-10-19T13:00:07.542Z,6.10
2022-10-19T13:01:07.547Z,5.80
2022-10-19T13:02:08.510Z,6.20
2022-10-19T13:03:07.538Z,5.50
2022-10-19T13:04:07.547Z,7.30
2022-10-19T13:05:07.491Z,8.50
2022-10-19T13:06:07.550Z,5.90
2022-10-19T13:07:08.502Z,6.00
2022-10-19T13:08:10.641Z,5.30
2022-10-19T13:09:08.577Z,5.60
2022-10-19T13:10:07.566Z,5.80
2022-10-19T13:11:07.385Z,5.10
2022-10-19T13:12:07.382Z,6.00
2022-10-19T13:14:17.587Z,4.30
2022-10-19T13:15:17.576Z,4.70
2022-10-19T13:16:17.664Z,5.00
2022-10-19T13:17:17.577Z,7.40
2022-10-19T13:18:17.566Z,4.70
2022-10-19T13:19:19.558Z,5.70
2022-10-19T13:20:17.518Z,4.50
2022-10-19T13:21:17.589Z,5.30
2022-10-19T13:22:17.497Z,6.80
2022-10-19T13:23:17.499Z,4.60
2022-10-19T13:24:19.487Z,5.20
2022-10-19T13:25:17.443Z,3.90
2022-10-19T13:26:17.520Z,4.50
2022-10-19T13:27:17.825Z,4.00
2022-10-19T13:28:17.440Z,3.60